Time;durP1;ratioP1;P1;durP2;ratioP2;P2;SDS_P1;SDS_P2;PMS_P1;PMS_P2;Temp;Humidity;BMP_temperature;BMP_pressure;BME280_temperature;BME280_humidity;BME280_pressure;Samples;Min_cycle;Max_cycle;Signal;HPM_P1;HPM_P2
2022/11/20 00:00:20;;;;;;;23.65;12.35;;;0.90;71.10;;;;;;5092091;28;20052;-70
2022/11/20 00:02:47;;;;;;;22.92;12.68;;;0.90;71.10;;;;;;5092238;28;20512;-70
2022/11/20 00:05:14;;;;;;;23.25;12.80;;;0.80;71.20;;;;;;5090967;28;20055;-70
2022/11/20 00:07:43;;;;;;;19.17;11.57;;;0.80;71.40;;;;;;5091002;28;20146;-70
2022/11/20 00:10:10;;;;;;;21.65;12.10;;;0.80;71.50;;;;;;5088609;28;20719;-70
2022/11/20 00:12:37;;;;;;;21.98;11.60;;;0.80;71.70;;;;;;5092477;28;20057;-70
2022/11/20 00:15:05;;;;;;;24.05;12.55;;;0.80;71.60;;;;;;5092133;28;20053;-70
2022/11/20 00:17:32;;;;;;;22.27;11.73;;;0.80;71.70;;;;;;5092037;28;20087;-70
2022/11/20 00:19:59;;;;;;;25.40;12.30;;;0.80;71.80;;;;;;5092028;28;20146;-69
2022/11/20 00:22:26;;;;;;;22.90;11.88;;;0.80;72.30;;;;;;5091109;28;20263;-70
2022/11/20 00:24:54;;;;;;;23.85;12.15;;;0.90;72.30;;;;;;5090834;28;20796;-69
2022/11/20 00:27:21;;;;;;;22.15;11.10;;;0.90;72.30;;;;;;5090630;28;20054;-70
2022/11/20 00:29:48;;;;;;;25.40;13.10;;;1.00;72.30;;;;;;5090406;28;20083;-70
2022/11/20 00:32:16;;;;;;;22.00;11.07;;;1.00;72.30;;;;;;5091804;28;20144;-70
2022/11/20 00:34:43;;;;;;;22.85;11.80;;;1.00;72.20;;;;;;5091775;28;20342;-70
2022/11/20 00:37:10;;;;;;;21.55;10.70;;;1.00;72.20;;;;;;5090359;28;20083;-70
2022/11/20 00:39:37;;;;;;;18.73;7.65;;;1.00;72.40;;;;;;5090315;28;20049;-69
2022/11/20 00:42:05;;;;;;;18.98;9.68;;;0.90;72.80;;;;;;5091957;28;20486;-69
2022/11/20 00:44:33;;;;;;;24.10;11.63;;;0.80;72.90;;;;;;5089731;28;20462;-70
2022/11/20 00:47:00;;;;;;;20.85;10.15;;;0.80;72.90;;;;;;5090472;28;20352;-70
2022/11/20 00:49:27;;;;;;;19.85;10.20;;;0.90;73.10;;;;;;5069589;28;20060;-70
2022/11/20 00:52:28;;;;;;;17.98;8.75;;;0.80;73.30;;;;;;5070718;28;20060;-70
2022/11/20 00:54:55;;;;;;;16.42;8.38;;;0.80;73.90;;;;;;5075291;28;20863;-69
2022/11/20 00:57:23;;;;;;;19.77;10.17;;;0.80;74.30;;;;;;5090201;28;20051;-69
2022/11/20 00:59:51;;;;;;;20.42;10.20;;;0.80;73.90;;;;;;5090094;28;20252;-70
2022/11/20 01:02:18;;;;;;;19.77;9.65;;;0.80;73.80;;;;;;5089379;28;20649;-69
2022/11/20 01:04:45;;;;;;;19.95;9.52;;;0.80;73.70;;;;;;5073367;28;20144;-70
2022/11/20 01:07:12;;;;;;;18.83;9.38;;;0.90;73.70;;;;;;5089712;28;20045;-70
2022/11/20 01:09:39;;;;;;;18.93;9.00;;;1.00;73.80;;;;;;5091166;28;20127;-69
2022/11/20 01:12:06;;;;;;;17.75;8.32;;;1.00;73.90;;;;;;5091340;28;20266;-69
2022/11/20 01:14:36;;;;;;;15.95;8.20;;;1.00;73.90;;;;;;5091258;28;20503;-70
2022/11/20 01:17:04;;;;;;;16.17;8.25;;;1.00;74.00;;;;;;5090223;28;20449;-69
2022/11/20 01:19:31;;;;;;;16.50;8.45;;;1.00;74.20;;;;;;5088237;28;20044;-69
2022/11/20 01:21:58;;;;;;;15.67;8.17;;;1.00;74.10;;;;;;5089766;28;20523;-69
2022/11/20 01:24:25;;;;;;;15.88;7.82;;;1.00;74.10;;;;;;5090421;28;20271;-70
2022/11/20 01:26:53;;;;;;;16.30;8.30;;;1.00;74.20;;;;;;5089849;28;20041;-69
2022/11/20 01:29:22;;;;;;;15.75;8.40;;;1.00;74.10;;;;;;5090307;28;20627;-69
2022/11/20 01:31:51;;;;;;;17.33;7.63;;;1.00;74.20;;;;;;5089814;28;20135;-70
2022/11/20 01:34:20;;;;;;;14.13;7.07;;;1.00;74.70;;;;;;5090735;28;21085;-69
2022/11/20 01:36:47;;;;;;;16.23;7.88;;;1.00;74.50;;;;;;5121982;27;20263;-70
2022/11/20 01:39:16;;;;;;;15.60;7.70;;;1.10;74.50;;;;;;5090756;28;20045;-70
2022/11/20 01:44:58;;;;;;;14.55;7.32;;;1.20;74.40;;;;;;5091091;28;20182;-70
2022/11/20 01:47:33;;;;;;;16.03;7.90;;;1.20;74.50;;;;;;5063912;28;20054;-69
2022/11/20 01:50:06;;;;;;;17.70;8.02;;;1.20;74.30;;;;;;5089227;28;20267;-69
2022/11/20 01:52:37;;;;;;;13.45;7.07;;;1.20;74.40;;;;;;5089364;28;20985;-69
2022/11/20 01:55:08;;;;;;;15.77;7.40;;;1.20;74.40;;;;;;5088225;28;20060;-69
2022/11/20 01:57:37;;;;;;;15.10;7.00;;;1.20;74.50;;;;;;5089482;28;20124;-69
2022/11/20 02:00:07;;;;;;;13.67;7.50;;;1.20;74.50;;;;;;5089135;28;20139;-69
2022/11/20 02:02:43;;;;;;;17.02;7.63;;;1.30;74.50;;;;;;5089316;28;20738;-70
2022/11/20 02:05:19;;;;;;;15.60;7.55;;;1.30;74.60;;;;;;5090786;28;20048;-69
2022/11/20 02:07:47;;;;;;;15.82;7.95;;;1.30;74.70;;;;;;5123349;27;20131;-70
2022/11/20 02:10:15;;;;;;;15.18;7.80;;;1.30;74.50;;;;;;5090525;28;20530;-70
2022/11/20 02:15:26;;;;;;;18.60;8.45;;;1.20;74.60;;;;;;5089153;28;20428;-70
2022/11/20 02:17:54;;;;;;;17.58;8.40;;;1.20;74.50;;;;;;5090513;28;20403;-69
2022/11/20 02:20:21;;;;;;;16.52;7.97;;;1.20;74.60;;;;;;5090182;28;20143;-69
2022/11/20 02:22:55;;;;;;;18.13;8.15;;;1.20;74.50;;;;;;5090285;28;20053;-69
2022/11/20 02:25:26;;;;;;;16.40;8.13;;;1.20;74.60;;;;;;5089130;28;20518;-69
2022/11/20 02:27:53;;;;;;;16.20;7.88;;;1.20;74.80;;;;;;5088997;28;20263;-69
2022/11/20 02:30:20;;;;;;;15.48;7.07;;;1.10;74.80;;;;;;5088549;28;20163;-70
2022/11/20 02:32:47;;;;;;;16.48;8.02;;;1.10;75.10;;;;;;5088588;28;20523;-69
2022/11/20 02:35:42;;;;;;;15.75;7.15;;;1.10;75.10;;;;;;5090137;28;20502;-70
2022/11/20 02:38:10;;;;;;;13.73;6.70;;;1.10;75.20;;;;;;5088623;28;20049;-69
2022/11/20 02:40:39;;;;;;;14.77;7.25;;;1.10;75.70;;;;;;5122765;27;20334;-70
2022/11/20 02:43:06;;;;;;;14.50;7.10;;;1.00;75.70;;;;;;5125754;27;20076;-70
2022/11/20 02:45:33;;;;;;;16.75;7.97;;;1.00;75.90;;;;;;5090842;28;20045;-70
2022/11/20 02:48:00;;;;;;;15.88;7.35;;;1.00;75.80;;;;;;5092197;28;20048;-70
2022/11/20 02:50:27;;;;;;;17.30;7.90;;;1.00;75.90;;;;;;5092199;28;20506;-69
2022/11/20 02:52:54;;;;;;;14.43;7.07;;;1.00;76.00;;;;;;5093858;28;20363;-70
2022/11/20 02:55:21;;;;;;;16.08;7.32;;;1.00;76.10;;;;;;5092552;28;20044;-69
2022/11/20 02:57:50;;;;;;;14.02;7.15;;;1.00;76.00;;;;;;5092319;28;20049;-70
2022/11/20 03:00:17;;;;;;;14.15;7.47;;;1.10;76.00;;;;;;5093370;28;20567;-70
2022/11/20 03:02:44;;;;;;;15.17;6.43;;;1.10;76.10;;;;;;5092700;28;20135;-70
2022/11/20 03:05:11;;;;;;;14.05;6.85;;;1.10;76.50;;;;;;5091307;28;20382;-70
2022/11/20 03:07:38;;;;;;;14.38;6.95;;;1.10;76.10;;;;;;5091978;28;20048;-70
2022/11/20 03:10:07;;;;;;;14.65;7.07;;;1.10;76.00;;;;;;5091757;28;20076;-70
2022/11/20 03:12:34;;;;;;;15.63;6.78;;;1.10;76.00;;;;;;5091895;28;20065;-70
2022/11/20 03:15:02;;;;;;;16.03;6.90;;;1.10;76.30;;;;;;5091964;28;20052;-69
2022/11/20 03:17:30;;;;;;;15.18;6.47;;;1.10;76.00;;;;;;5126160;27;20283;-70
2022/11/20 03:19:57;;;;;;;14.15;6.70;;;1.10;76.00;;;;;;5091372;28;20058;-69
2022/11/20 03:22:24;;;;;;;13.75;6.32;;;1.10;76.00;;;;;;5089686;28;20053;-69
2022/11/20 03:24:51;;;;;;;15.95;6.88;;;1.10;76.00;;;;;;5093000;28;20072;-70
2022/11/20 03:27:18;;;;;;;15.37;7.10;;;1.20;75.90;;;;;;5074648;28;20055;-70
2022/11/20 03:29:46;;;;;;;16.27;7.72;;;1.20;75.70;;;;;;5092980;28;20729;-70
2022/11/20 03:32:14;;;;;;;14.65;7.30;;;1.20;75.60;;;;;;5091287;28;20418;-70
2022/11/20 03:34:41;;;;;;;14.35;6.82;;;1.20;75.50;;;;;;5091351;28;20127;-69
2022/11/20 03:37:08;;;;;;;15.13;7.35;;;1.20;75.70;;;;;;5125518;27;20154;-70
2022/11/20 03:39:35;;;;;;;14.33;6.93;;;1.20;75.60;;;;;;5091634;28;20048;-70
2022/11/20 03:42:44;;;;;;;11.93;6.43;;;1.20;75.70;;;;;;5092828;28;20598;-69
2022/11/20 03:44:49;;;;;;;15.10;7.15;;;1.20;75.80;;;;;;5090727;28;20052;-69
2022/11/20 03:47:18;;;;;;;13.85;6.97;;;1.20;75.90;;;;;;5091073;28;20049;-70
2022/11/20 03:49:45;;;;;;;15.32;6.72;;;1.20;75.90;;;;;;5091123;28;20148;-70
2022/11/20 03:52:12;;;;;;;13.07;6.43;;;1.30;76.00;;;;;;5090731;28;20052;-70
2022/11/20 03:54:39;;;;;;;15.02;6.50;;;1.40;76.00;;;;;;5090357;28;20342;-70
2022/11/20 03:57:06;;;;;;;15.02;6.68;;;1.40;76.00;;;;;;5090964;28;20056;-70
2022/11/20 03:59:33;;;;;;;13.82;6.68;;;1.40;75.90;;;;;;5091284;28;20053;-70
2022/11/20 04:02:00;;;;;;;13.82;6.88;;;1.40;75.80;;;;;;5092833;28;20052;-70
2022/11/20 04:04:28;;;;;;;17.10;7.03;;;1.40;75.70;;;;;;5092467;28;20049;-70
2022/11/20 04:06:55;;;;;;;13.30;6.50;;;1.40;75.70;;;;;;5091135;28;20279;-69
2022/11/20 04:09:22;;;;;;;12.90;6.93;;;1.40;75.70;;;;;;5091222;28;20094;-70
2022/11/20 04:11:49;;;;;;;13.63;7.28;;;1.40;75.60;;;;;;5089717;28;20064;-70
2022/11/20 04:14:17;;;;;;;13.75;6.00;;;1.40;75.70;;;;;;5091966;28;20052;-70
2022/11/20 04:16:44;;;;;;;13.20;6.10;;;1.30;75.80;;;;;;5090489;28;20106;-70
2022/11/20 04:19:14;;;;;;;15.68;7.15;;;1.40;75.90;;;;;;5091874;28;20255;-70
2022/11/20 04:21:42;;;;;;;13.82;6.55;;;1.20;75.80;;;;;;5090566;28;20496;-70
2022/11/20 04:24:10;;;;;;;13.10;6.22;;;1.30;75.90;;;;;;5090795;28;20047;-70
2022/11/20 04:26:38;;;;;;;13.80;6.40;;;1.30;76.00;;;;;;5092009;28;20053;-70
2022/11/20 04:29:05;;;;;;;14.00;6.80;;;1.30;76.00;;;;;;5089498;28;20053;-70
2022/11/20 04:31:34;;;;;;;15.32;8.43;;;1.40;76.00;;;;;;5090228;28;20617;-69
2022/11/20 04:34:03;;;;;;;14.40;6.63;;;1.40;76.00;;;;;;5090446;28;20505;-70
2022/11/20 04:36:30;;;;;;;13.43;6.53;;;1.40;76.00;;;;;;5070505;28;20149;-70
2022/11/20 04:39:00;;;;;;;14.25;6.57;;;1.40;76.00;;;;;;5113177;27;20482;-70
2022/11/20 04:41:29;;;;;;;13.73;6.93;;;1.40;76.00;;;;;;5091140;28;20048;-70
2022/11/20 04:43:59;;;;;;;14.05;6.40;;;1.40;76.00;;;;;;5090452;28;20240;-70
2022/11/20 04:46:27;;;;;;;12.70;6.35;;;1.40;76.10;;;;;;5089446;28;20044;-70
2022/11/20 04:48:54;;;;;;;11.73;6.10;;;1.40;76.20;;;;;;5090445;28;20064;-70
2022/11/20 04:51:21;;;;;;;12.73;6.75;;;1.40;76.20;;;;;;5091833;28;20052;-70
2022/11/20 04:53:49;;;;;;;16.27;9.07;;;1.40;76.20;;;;;;5090353;28;20132;-70
2022/11/20 04:56:18;;;;;;;14.98;8.27;;;1.40;76.10;;;;;;5090557;28;20783;-70
2022/11/20 04:58:45;;;;;;;17.48;7.25;;;1.40;76.10;;;;;;5124319;27;20562;-70
2022/11/20 05:01:14;;;;;;;12.48;6.55;;;1.40;75.90;;;;;;5091671;28;20632;-70
2022/11/20 05:03:42;;;;;;;17.52;7.22;;;1.40;76.00;;;;;;5089490;28;20057;-70
2022/11/20 05:06:10;;;;;;;14.33;7.23;;;1.30;76.10;;;;;;5090776;28;20102;-69
2022/11/20 05:08:37;;;;;;;13.57;6.93;;;1.30;76.20;;;;;;5090041;28;20248;-69
2022/11/20 05:11:07;;;;;;;12.75;6.18;;;1.30;76.10;;;;;;5091496;28;20048;-69
2022/11/20 05:13:35;;;;;;;12.13;6.45;;;1.30;76.20;;;;;;5089559;28;20057;-69
2022/11/20 05:16:03;;;;;;;13.85;6.28;;;1.40;76.00;;;;;;5090051;28;20045;-70
2022/11/20 05:18:30;;;;;;;13.20;6.87;;;1.40;75.90;;;;;;5089885;28;20059;-69
2022/11/20 05:20:57;;;;;;;15.13;7.32;;;1.30;75.80;;;;;;5090025;28;20256;-70
2022/11/20 05:23:25;;;;;;;13.18;5.93;;;1.30;75.70;;;;;;5091137;28;20125;-70
2022/11/20 05:25:54;;;;;;;13.30;6.10;;;1.30;75.70;;;;;;5090021;28;20055;-70
2022/11/20 05:28:21;;;;;;;12.88;5.82;;;1.20;75.70;;;;;;5090040;28;20536;-70
2022/11/20 05:30:50;;;;;;;13.90;7.20;;;1.20;75.80;;;;;;5070169;28;20044;-70
2022/11/20 05:33:18;;;;;;;15.48;6.70;;;1.20;75.70;;;;;;5070833;28;21093;-70
2022/11/20 05:35:45;;;;;;;14.13;6.50;;;1.20;75.70;;;;;;5070656;28;20156;-69
2022/11/20 05:38:12;;;;;;;13.63;6.47;;;1.20;75.70;;;;;;5090024;28;20052;-70
2022/11/20 05:40:39;;;;;;;14.90;6.70;;;1.10;75.70;;;;;;5091454;28;20056;-69
2022/11/20 05:43:06;;;;;;;14.00;6.83;;;1.10;75.70;;;;;;5089806;28;20051;-69
2022/11/20 05:45:33;;;;;;;14.32;6.40;;;1.10;75.70;;;;;;5089681;28;20352;-69
2022/11/20 05:48:02;;;;;;;13.00;6.30;;;1.00;75.60;;;;;;5090942;28;20577;-70
2022/11/20 05:50:29;;;;;;;13.77;6.88;;;1.00;75.70;;;;;;5089664;28;20959;-69
2022/11/20 05:52:59;;;;;;;12.73;6.63;;;1.00;75.90;;;;;;5089458;28;20092;-70
2022/11/20 05:55:26;;;;;;;14.83;6.50;;;1.00;76.10;;;;;;5069672;28;20900;-70
2022/11/20 05:57:53;;;;;;;13.95;5.95;;;1.10;76.20;;;;;;5090074;28;20251;-69
2022/11/20 06:00:21;;;;;;;12.93;5.93;;;1.00;76.20;;;;;;5088864;28;20143;-70
2022/11/20 06:02:48;;;;;;;15.73;6.68;;;1.00;76.20;;;;;;5089242;28;20222;-70
2022/11/20 06:05:17;;;;;;;13.23;6.55;;;1.10;76.30;;;;;;5096793;28;20051;-70
2022/11/20 06:07:44;;;;;;;13.50;6.77;;;1.10;76.40;;;;;;5088864;28;20170;-70
2022/11/20 06:10:11;;;;;;;13.02;5.85;;;1.20;76.40;;;;;;5088022;28;20297;-70
2022/11/20 06:12:38;;;;;;;13.00;6.40;;;1.20;76.40;;;;;;5087481;28;20059;-70
2022/11/20 06:15:06;;;;;;;13.63;6.38;;;1.20;76.20;;;;;;5086204;28;20056;-70
2022/11/20 06:17:33;;;;;;;12.55;6.50;;;1.20;76.30;;;;;;5090979;28;20048;-70
2022/11/20 06:20:27;;;;;;;13.83;6.40;;;1.20;76.30;;;;;;5092648;28;20138;-70
2022/11/20 06:22:54;;;;;;;12.18;5.50;;;1.20;76.30;;;;;;5091136;28;20267;-70
2022/11/20 06:25:21;;;;;;;11.90;5.55;;;1.20;76.10;;;;;;5093821;28;20522;-70
2022/11/20 06:27:48;;;;;;;11.95;5.88;;;1.10;76.00;;;;;;5092521;28;20798;-69
2022/11/20 06:30:15;;;;;;;13.43;5.80;;;1.10;76.50;;;;;;5092289;28;20064;-70
2022/11/20 06:32:43;;;;;;;12.37;6.00;;;1.10;76.90;;;;;;5092651;28;20053;-70
2022/11/20 06:35:10;;;;;;;13.10;6.18;;;1.20;76.20;;;;;;5092416;28;20279;-70
2022/11/20 06:37:39;;;;;;;12.93;6.97;;;1.10;76.10;;;;;;5094002;28;20060;-69
2022/11/20 06:40:07;;;;;;;11.52;6.35;;;1.10;76.00;;;;;;5091964;28;20082;-70
2022/11/20 06:42:38;;;;;;;13.98;6.63;;;1.10;76.10;;;;;;5091863;28;20134;-70
2022/11/20 06:45:05;;;;;;;13.53;6.70;;;1.00;76.20;;;;;;5093546;28;20159;-70
2022/11/20 06:47:33;;;;;;;14.00;5.85;;;1.10;76.40;;;;;;5090921;28;20272;-70
2022/11/20 06:50:00;;;;;;;14.25;7.25;;;1.10;76.40;;;;;;5091621;28;20047;-69
2022/11/20 06:52:27;;;;;;;13.30;6.07;;;1.10;76.40;;;;;;5091869;28;20053;-70
2022/11/20 06:54:55;;;;;;;13.50;6.70;;;1.10;76.20;;;;;;5092003;28;20521;-70
2022/11/20 06:57:22;;;;;;;14.73;6.27;;;1.10;76.20;;;;;;5092189;28;20056;-70
2022/11/20 06:59:50;;;;;;;13.85;6.57;;;1.10;76.10;;;;;;5093054;28;20283;-70
2022/11/20 07:02:17;;;;;;;13.10;6.38;;;1.20;76.00;;;;;;5091971;28;20055;-70
2022/11/20 07:04:44;;;;;;;12.90;6.93;;;1.20;75.80;;;;;;5092972;28;20059;-69
2022/11/20 07:07:11;;;;;;;15.23;6.85;;;1.10;75.70;;;;;;5091618;28;20152;-70
2022/11/20 07:09:38;;;;;;;14.50;7.37;;;1.10;75.60;;;;;;5091549;28;20878;-70
2022/11/20 07:12:07;;;;;;;14.63;7.45;;;1.10;75.50;;;;;;5091471;28;20244;-70
2022/11/20 07:14:34;;;;;;;14.48;6.72;;;1.10;75.40;;;;;;5092334;28;20135;-70
2022/11/20 07:17:01;;;;;;;13.32;6.75;;;1.10;75.30;;;;;;5092438;28;20059;-70
2022/11/20 07:19:28;;;;;;;13.68;7.60;;;1.10;75.20;;;;;;5090671;28;20047;-70
2022/11/20 07:21:55;;;;;;;14.30;6.67;;;1.10;75.10;;;;;;5091253;28;20165;-70
2022/11/20 07:24:22;;;;;;;13.60;6.60;;;1.10;75.00;;;;;;5090819;28;20267;-70
2022/11/20 07:26:49;;;;;;;12.23;5.75;;;1.10;74.90;;;;;;5090242;28;20178;-70
2022/11/20 07:29:18;;;;;;;13.32;6.20;;;1.10;74.80;;;;;;5123621;27;20611;-70
2022/11/20 07:31:45;;;;;;;13.18;7.10;;;1.10;74.80;;;;;;5091898;28;21022;-70
2022/11/20 07:34:12;;;;;;;14.80;6.90;;;1.10;74.80;;;;;;5089858;28;20418;-70
2022/11/20 07:36:40;;;;;;;16.38;7.10;;;1.10;74.60;;;;;;5091397;28;20608;-70
2022/11/20 07:39:07;;;;;;;13.63;6.38;;;1.10;74.50;;;;;;5099522;28;20051;-70
2022/11/20 07:41:34;;;;;;;14.10;6.10;;;1.10;74.40;;;;;;5091214;28;20059;-70
2022/11/20 07:44:01;;;;;;;14.00;6.43;;;1.10;74.30;;;;;;5091940;28;20146;-70
2022/11/20 07:46:30;;;;;;;14.80;6.60;;;1.10;74.20;;;;;;5091566;28;20131;-70
2022/11/20 07:48:57;;;;;;;15.68;6.97;;;1.10;74.20;;;;;;5090622;28;20272;-70
2022/11/20 07:51:25;;;;;;;15.05;6.50;;;1.00;74.20;;;;;;5098051;28;20058;-70
2022/11/20 07:53:52;;;;;;;15.57;6.22;;;1.00;74.20;;;;;;5098463;28;20099;-70
2022/11/20 07:56:19;;;;;;;12.90;6.15;;;1.00;74.10;;;;;;5100865;28;20041;-70
2022/11/20 07:58:47;;;;;;;17.93;8.73;;;1.00;74.30;;;;;;5096466;28;20063;-70
2022/11/20 08:01:14;;;;;;;19.80;9.55;;;1.00;74.40;;;;;;5109837;28;20855;-70
2022/11/20 08:03:46;;;;;;;16.20;8.82;;;1.00;74.40;;;;;;5100640;28;20134;-69
2022/11/20 08:06:14;;;;;;;13.57;6.75;;;1.00;74.40;;;;;;5094873;28;20052;-69
2022/11/20 08:08:41;;;;;;;13.63;6.95;;;1.00;74.40;;;;;;5088239;28;20040;-69
2022/11/20 08:16:38;;;;;;;16.27;7.75;;;1.10;74.20;;;;;;5090163;28;20083;-69
2022/11/20 08:19:07;;;;;;;13.48;6.50;;;1.10;74.20;;;;;;5089616;28;20080;-69
2022/11/20 08:21:34;;;;;;;16.90;7.38;;;1.10;74.20;;;;;;5069513;28;20051;-69
2022/11/20 08:24:01;;;;;;;13.63;6.50;;;1.10;74.10;;;;;;5090862;28;20414;-69
2022/11/20 08:26:28;;;;;;;13.00;6.03;;;1.10;74.00;;;;;;5089941;28;20255;-70
2022/11/20 08:28:57;;;;;;;14.63;7.38;;;1.00;73.80;;;;;;5088133;28;20055;-70
2022/11/20 08:31:25;;;;;;;16.17;7.50;;;1.00;73.80;;;;;;5088131;28;20057;-70
2022/11/20 08:33:52;;;;;;;13.80;6.55;;;1.00;73.80;;;;;;5088930;28;20486;-70
2022/11/20 08:36:22;;;;;;;14.23;7.30;;;1.00;73.80;;;;;;5089303;28;20100;-70
2022/11/20 08:38:49;;;;;;;13.48;6.75;;;1.00;73.80;;;;;;5091011;28;20260;-70
2022/11/20 08:41:25;;;;;;;12.15;6.43;;;1.00;74.20;;;;;;5099297;28;20044;-70
2022/11/20 08:43:55;;;;;;;14.68;6.32;;;1.00;74.60;;;;;;5116514;27;20050;-70
2022/11/20 08:46:23;;;;;;;15.13;8.48;;;1.00;74.50;;;;;;5109331;28;20048;-70
2022/11/20 08:48:51;;;;;;;14.97;6.30;;;1.00;74.30;;;;;;5089566;28;20055;-70
2022/11/20 08:51:21;;;;;;;13.63;5.93;;;1.00;74.10;;;;;;5089356;28;20339;-70
2022/11/20 08:53:49;;;;;;;12.57;6.35;;;1.00;73.50;;;;;;5090018;28;20086;-70
2022/11/20 08:56:17;;;;;;;12.13;5.70;;;1.00;73.90;;;;;;5091004;28;20061;-70
2022/11/20 08:58:44;;;;;;;13.45;6.53;;;1.00;74.20;;;;;;5088313;28;20057;-70
2022/11/20 09:01:12;;;;;;;12.80;6.47;;;1.10;74.20;;;;;;5122019;27;20041;-70
2022/11/20 09:03:39;;;;;;;11.98;5.68;;;1.10;73.80;;;;;;5089023;28;21099;-69
2022/11/20 09:06:07;;;;;;;10.63;5.22;;;1.10;73.50;;;;;;5123216;27;20055;-70
2022/11/20 09:08:36;;;;;;;11.45;5.60;;;1.10;73.10;;;;;;5086652;28;20528;-69
2022/11/20 09:11:04;;;;;;;12.80;5.82;;;1.10;73.40;;;;;;5087759;28;20048;-69
2022/11/20 09:13:33;;;;;;;12.10;5.20;;;1.10;73.30;;;;;;5088041;28;20055;-70
2022/11/20 09:16:02;;;;;;;12.63;5.45;;;1.10;73.20;;;;;;5089156;28;20252;-70
2022/11/20 09:18:31;;;;;;;14.27;6.28;;;1.10;73.30;;;;;;5092262;28;20055;-69
2022/11/20 09:20:58;;;;;;;11.93;5.95;;;1.20;73.10;;;;;;5092669;28;20767;-69
2022/11/20 09:23:26;;;;;;;12.65;5.80;;;1.20;73.20;;;;;;5101551;28;20527;-69
2022/11/20 09:25:59;;;;;;;11.40;5.50;;;1.20;73.20;;;;;;5088277;28;20051;-69
2022/11/20 09:28:26;;;;;;;12.00;5.80;;;1.30;73.20;;;;;;5088767;28;20322;-69
2022/11/20 09:30:53;;;;;;;10.68;5.15;;;1.40;73.00;;;;;;5120999;27;20048;-69
2022/11/20 09:33:20;;;;;;;11.68;5.63;;;1.40;72.70;;;;;;5089655;28;20055;-69
2022/11/20 09:35:47;;;;;;;11.73;5.57;;;1.40;72.80;;;;;;5121977;27;20048;-70
2022/11/20 09:38:14;;;;;;;12.70;5.77;;;1.40;72.80;;;;;;5102428;28;20137;-70
2022/11/20 09:40:47;;;;;;;12.25;5.18;;;1.50;72.50;;;;;;5088879;28;20594;-70
2022/11/20 09:43:21;;;;;;;10.65;5.20;;;1.50;72.40;;;;;;5106184;27;20048;-70
2022/11/20 09:46:02;;;;;;;11.35;5.45;;;1.60;72.30;;;;;;5092655;28;20493;-70
2022/11/20 09:48:43;;;;;;;11.77;5.35;;;1.60;72.30;;;;;;5094392;28;20488;-70
2022/11/20 09:51:21;;;;;;;11.43;5.17;;;1.70;72.30;;;;;;5089699;28;20106;-70
2022/11/20 09:54:02;;;;;;;13.45;5.85;;;1.80;72.10;;;;;;5122192;27;20304;-70
2022/11/20 09:56:30;;;;;;;9.15;4.60;;;1.80;71.80;;;;;;5088794;28;20088;-70
2022/11/20 09:59:03;;;;;;;12.35;5.50;;;1.90;71.80;;;;;;5088655;28;20052;-69
2022/11/20 10:01:33;;;;;;;11.85;5.05;;;1.90;71.40;;;;;;5099909;28;20162;-69
2022/11/20 10:04:04;;;;;;;9.93;5.07;;;2.00;71.50;;;;;;5087542;28;20052;-69
2022/11/20 10:06:33;;;;;;;11.68;4.72;;;2.00;71.50;;;;;;5088635;28;20305;-70
2022/11/20 10:09:15;;;;;;;11.48;4.70;;;2.10;71.30;;;;;;5087140;28;20055;-69
2022/11/20 10:11:49;;;;;;;12.75;5.22;;;2.10;71.20;;;;;;5088118;28;20127;-69
2022/11/20 10:14:33;;;;;;;12.50;5.05;;;2.20;71.40;;;;;;5119667;27;20566;-69
2022/11/20 10:17:12;;;;;;;9.90;4.73;;;2.30;71.50;;;;;;5084881;28;20059;-70
2022/11/20 10:19:54;;;;;;;11.27;5.00;;;2.30;71.50;;;;;;5086106;28;20278;-70
2022/11/20 10:22:41;;;;;;;11.57;5.10;;;2.40;71.10;;;;;;5104176;28;20053;-70
2022/11/20 10:25:15;;;;;;;10.35;4.68;;;2.50;71.00;;;;;;5084895;28;20491;-70
2022/11/20 10:28:01;;;;;;;11.68;5.15;;;2.50;71.20;;;;;;5088386;28;20143;-70
2022/11/20 10:30:30;;;;;;;11.63;5.43;;;2.70;71.20;;;;;;5113271;27;21137;-70
2022/11/20 10:33:04;;;;;;;9.65;5.00;;;2.70;71.50;;;;;;5085849;28;20752;-71
2022/11/20 10:35:37;;;;;;;11.45;5.43;;;2.80;71.50;;;;;;5086535;28;20056;-69
2022/11/20 10:38:12;;;;;;;11.80;4.72;;;2.90;71.50;;;;;;5089323;28;20135;-69
2022/11/20 10:40:42;;;;;;;12.75;5.57;;;3.00;71.50;;;;;;5088301;28;20056;-70
2022/11/20 10:43:14;;;;;;;11.87;5.00;;;3.00;71.50;;;;;;5089510;28;20048;-70
2022/11/20 10:45:50;;;;;;;11.05;4.90;;;3.10;71.50;;;;;;5106717;27;20377;-70
2022/11/20 10:48:23;;;;;;;11.18;4.90;;;3.20;71.50;;;;;;5067783;28;20045;-70
2022/11/20 10:51:06;;;;;;;10.55;5.10;;;3.30;71.20;;;;;;5082811;28;20111;-70
2022/11/20 10:53:58;;;;;;;11.48;5.03;;;3.30;71.20;;;;;;5086686;28;20092;-69
2022/11/20 10:56:32;;;;;;;11.53;5.37;;;3.40;70.30;;;;;;5087953;28;20118;-69
2022/11/20 10:59:16;;;;;;;11.45;4.70;;;3.50;70.30;;;;;;5086037;28;20330;-70
2022/11/20 11:01:45;;;;;;;10.13;4.45;;;3.50;70.00;;;;;;5087860;27;20125;-69
2022/11/20 11:04:27;;;;;;;9.82;4.50;;;3.50;69.70;;;;;;5101936;28;20983;-69
2022/11/20 11:06:59;;;;;;;10.35;4.40;;;3.60;69.40;;;;;;5099239;28;20044;-69
2022/11/20 11:09:33;;;;;;;8.67;4.30;;;3.70;69.30;;;;;;5096170;28;20077;-69
2022/11/20 11:12:00;;;;;;;10.43;5.25;;;3.70;69.10;;;;;;5098326;28;20346;-69
2022/11/20 11:14:28;;;;;;;9.63;5.15;;;3.80;69.10;;;;;;5093147;28;20131;-69
2022/11/20 11:16:57;;;;;;;9.82;4.78;;;3.90;68.80;;;;;;5091378;28;20491;-70
2022/11/20 11:19:25;;;;;;;9.52;4.40;;;3.90;68.40;;;;;;5092745;28;20082;-71
2022/11/20 11:21:54;;;;;;;9.90;4.60;;;3.90;68.20;;;;;;5091416;28;20075;-71
2022/11/20 11:24:23;;;;;;;8.10;4.28;;;4.00;68.10;;;;;;5099114;28;20251;-70
2022/11/20 11:26:58;;;;;;;10.23;4.72;;;4.00;68.00;;;;;;4959242;27;20120;-71
2022/11/20 11:29:26;;;;;;;9.68;4.50;;;4.10;67.80;;;;;;5124596;27;20052;-70
2022/11/20 11:32:06;;;;;;;9.60;4.53;;;4.10;66.70;;;;;;5090711;28;20056;-71
2022/11/20 11:34:33;;;;;;;9.50;4.50;;;4.20;67.00;;;;;;5100030;28;20524;-71
2022/11/20 11:37:01;;;;;;;10.82;4.70;;;4.20;66.60;;;;;;5095956;28;20278;-71
2022/11/20 11:39:30;;;;;;;10.45;4.82;;;4.30;67.20;;;;;;5097407;28;20052;-71
2022/11/20 11:41:59;;;;;;;10.25;4.75;;;4.30;67.50;;;;;;5103567;28;20075;-71
2022/11/20 11:47:23;;;;;;;8.77;3.93;;;4.50;67.30;;;;;;5123118;27;20121;-71
2022/11/20 11:49:50;;;;;;;8.75;4.30;;;4.50;67.10;;;;;;5089391;28;20299;-70
2022/11/20 11:52:21;;;;;;;8.27;3.78;;;4.50;66.80;;;;;;5091895;28;20063;-70
2022/11/20 11:54:53;;;;;;;7.72;3.17;;;4.60;66.20;;;;;;5090613;28;20119;-70
2022/11/20 11:57:29;;;;;;;8.27;3.55;;;4.70;65.30;;;;;;5087645;28;20130;-70
2022/11/20 12:00:03;;;;;;;7.93;3.77;;;4.70;65.00;;;;;;5088832;28;20049;-70
2022/11/20 12:02:40;;;;;;;7.13;3.53;;;4.80;65.00;;;;;;5091902;28;20334;-71
2022/11/20 12:05:20;;;;;;;9.13;4.38;;;4.90;64.80;;;;;;5089792;28;20052;-70
2022/11/20 12:07:50;;;;;;;7.57;3.65;;;4.90;64.70;;;;;;5091825;28;20057;-71
2022/11/20 12:10:22;;;;;;;10.07;3.70;;;5.00;64.90;;;;;;5091466;28;20074;-70
2022/11/20 12:12:54;;;;;;;7.97;4.07;;;5.00;64.20;;;;;;5090581;28;20053;-71
2022/11/20 12:15:29;;;;;;;8.80;3.80;;;5.00;64.40;;;;;;5087216;28;20263;-70
2022/11/20 12:17:58;;;;;;;8.68;3.97;;;5.00;64.30;;;;;;5093122;28;20056;-70
2022/11/20 12:20:29;;;;;;;8.52;3.90;;;5.10;64.10;;;;;;5089749;28;20044;-70
2022/11/20 12:23:03;;;;;;;7.25;3.90;;;5.10;64.00;;;;;;5088712;28;20050;-70
2022/11/20 12:25:33;;;;;;;8.67;3.77;;;5.10;63.20;;;;;;5090082;28;20060;-70
2022/11/20 12:28:17;;;;;;;7.78;4.00;;;5.20;62.10;;;;;;5090098;28;20285;-69
2022/11/20 12:30:56;;;;;;;10.00;4.30;;;5.10;61.90;;;;;;5089211;28;20131;-69
2022/11/20 12:33:47;;;;;;;7.53;3.85;;;5.10;61.30;;;;;;5095683;28;20575;-69
2022/11/20 12:36:28;;;;;;;8.45;4.28;;;5.10;61.30;;;;;;5090223;28;20044;-70
2022/11/20 12:39:15;;;;;;;8.87;4.83;;;5.10;61.50;;;;;;5090006;28;20040;-69
2022/11/20 12:45:11;;;;;;;8.65;4.53;;;5.10;61.50;;;;;;5070716;28;20118;-70
2022/11/20 12:47:50;;;;;;;10.30;4.68;;;5.20;61.80;;;;;;5064200;28;20110;-70
2022/11/20 12:50:29;;;;;;;7.80;4.13;;;5.20;61.10;;;;;;5089661;28;20721;-69
2022/11/20 12:53:02;;;;;;;9.33;4.73;;;5.10;61.30;;;;;;5089755;28;20052;-70
2022/11/20 12:55:42;;;;;;;10.32;5.28;;;5.10;60.50;;;;;;5087897;28;20257;-69
2022/11/20 12:58:16;;;;;;;10.20;5.25;;;5.10;60.70;;;;;;5088143;28;20124;-70
2022/11/20 13:00:55;;;;;;;10.02;4.80;;;5.10;61.00;;;;;;5088617;28;20080;-70
2022/11/20 13:03:37;;;;;;;10.60;4.95;;;5.00;60.80;;;;;;5088748;28;20068;-70
2022/11/20 13:06:14;;;;;;;10.00;5.10;;;5.00;60.50;;;;;;5087478;28;20060;-69
2022/11/20 13:08:44;;;;;;;10.43;5.38;;;5.00;60.50;;;;;;5088766;28;20259;-69
2022/11/20 13:11:18;;;;;;;10.07;5.32;;;4.90;60.40;;;;;;5070389;28;20056;-69
2022/11/20 13:14:08;;;;;;;10.50;5.43;;;4.90;60.50;;;;;;5091001;28;20102;-70
2022/11/20 13:16:41;;;;;;;11.45;5.70;;;4.90;60.80;;;;;;5090084;28;20069;-69
2022/11/20 13:19:12;;;;;;;10.47;5.47;;;4.90;60.80;;;;;;5098577;28;20518;-70